Time;durP1;ratioP1;P1;durP2;ratioP2;P2;SDS_P1;SDS_P2;PMS_P1;PMS_P2;Temp;Humidity;BMP_temperature;BMP_pressure;BME280_temperature;BME280_humidity;BME280_pressure;Samples;Min_cycle;Max_cycle;Signal;HPM_P1;HPM_P2
2021/11/23 00:00:39;;;;;;;;;;;;;;;19.97;51.00;99664.50;2087820;28;20580;-44
2021/11/23 00:01:39;;;;;;;;;;;;;;;19.97;50.93;99669.13;2082909;28;19927;-44
2021/11/23 00:02:40;;;;;;;;;;;;;;;19.96;50.86;99659.19;2083953;28;19922;-44
2021/11/23 00:03:41;;;;;;;;;;;;;;;19.96;51.03;99665.50;2075830;28;19912;-43
2021/11/23 00:04:41;;;;;;;;;;;;;;;19.96;51.06;99665.50;2077534;28;19921;-43
2021/11/23 00:05:43;;;;;;;;;;;;;;;19.95;51.00;99661.06;2084938;28;20397;-45
2021/11/23 00:06:43;;;;;;;;;;;;;;;19.95;51.15;99665.69;2082930;28;19909;-44
2021/11/23 00:07:43;;;;;;;;;;;;;;;19.94;51.05;99650.28;2083314;28;20316;-43
2021/11/23 00:08:44;;;;;;;;;;;;;;;19.96;50.93;99653.72;2084185;28;20239;-43
2021/11/23 00:09:44;;;;;;;;;;;;;;;19.96;51.00;99649.09;2084943;28;20391;-42
2021/11/23 00:10:45;;;;;;;;;;;;;;;19.96;51.09;99651.81;2082313;28;19916;-42
2021/11/23 00:11:46;;;;;;;;;;;;;;;19.93;51.12;99646.69;2087339;28;20135;-42
2021/11/23 00:12:46;;;;;;;;;;;;;;;19.92;51.08;99645.00;2082544;28;19961;-42
2021/11/23 00:13:46;;;;;;;;;;;;;;;19.91;51.08;99646.00;2077794;28;19921;-43
2021/11/23 00:14:47;;;;;;;;;;;;;;;19.89;51.09;99645.31;2080688;28;19951;-43
2021/11/23 00:15:47;;;;;;;;;;;;;;;19.89;51.13;99646.19;2079538;28;20177;-42
2021/11/23 00:16:47;;;;;;;;;;;;;;;19.89;51.16;99648.03;2082018;28;19920;-42
2021/11/23 00:17:48;;;;;;;;;;;;;;;19.88;51.08;99649.06;2082269;28;20077;-42
2021/11/23 00:18:48;;;;;;;;;;;;;;;19.88;51.15;99643.59;2080699;28;20152;-42
2021/11/23 00:19:49;;;;;;;;;;;;;;;19.87;51.19;99642.75;2083014;28;19961;-42
2021/11/23 00:20:49;;;;;;;;;;;;;;;19.88;51.17;99646.34;2080575;28;19916;-42
2021/11/23 00:21:50;;;;;;;;;;;;;;;19.86;51.18;99645.66;2081020;28;19939;-42
2021/11/23 00:22:50;;;;;;;;;;;;;;;19.85;51.28;99650.25;2079412;28;19916;-42
2021/11/23 00:23:50;;;;;;;;;;;;;;;19.85;51.13;99644.78;2077318;28;19923;-47
2021/11/23 00:24:51;;;;;;;;;;;;;;;19.86;51.09;99645.66;2077570;28;19916;-44
2021/11/23 00:25:51;;;;;;;;;;;;;;;19.86;51.22;99641.03;2076657;28;20031;-43
2021/11/23 00:26:51;;;;;;;;;;;;;;;19.86;51.18;99642.91;2077782;28;19917;-42
2021/11/23 00:27:52;;;;;;;;;;;;;;;19.87;51.17;99637.28;2080675;28;19916;-43
2021/11/23 00:28:53;;;;;;;;;;;;;;;19.87;51.01;99647.38;2079168;28;19921;-42
2021/11/23 00:29:53;;;;;;;;;;;;;;;19.87;51.03;99641.91;2079887;28;19920;-43
2021/11/23 00:30:53;;;;;;;;;;;;;;;19.88;51.16;99638.13;2081076;28;19928;-42
2021/11/23 00:31:54;;;;;;;;;;;;;;;19.88;51.02;99643.59;2078656;28;20536;-43
2021/11/23 00:32:54;;;;;;;;;;;;;;;19.89;51.08;99645.31;2080657;28;20051;-42
2021/11/23 00:33:54;;;;;;;;;;;;;;;19.90;51.05;99647.03;2083065;28;20136;-42
2021/11/23 00:34:55;;;;;;;;;;;;;;;19.91;51.03;99646.00;2085166;28;20786;-44
2021/11/23 00:35:56;;;;;;;;;;;;;;;19.90;51.06;99642.41;2082024;28;20170;-42
2021/11/23 00:36:56;;;;;;;;;;;;;;;19.92;51.05;99654.06;2082264;28;19916;-42
2021/11/23 00:37:57;;;;;;;;;;;;;;;19.96;50.98;99650.97;2084158;28;20286;-42
2021/11/23 00:38:57;;;;;;;;;;;;;;;19.97;50.79;99659.03;2083533;28;20030;-42
2021/11/23 00:39:57;;;;;;;;;;;;;;;19.99;50.92;99651.53;2083325;28;19960;-43
2021/11/23 00:40:58;;;;;;;;;;;;;;;20.01;50.70;99660.38;2083024;28;20021;-43
2021/11/23 00:41:58;;;;;;;;;;;;;;;20.03;50.76;99663.81;2086773;28;20537;-41
2021/11/23 00:43:03;;;;;;;;;;;;;;;20.03;50.74;99661.09;2083663;28;20101;-42
2021/11/23 00:44:04;;;;;;;;;;;;;;;20.04;50.54;99665.56;2077887;28;19920;-44
2021/11/23 00:45:05;;;;;;;;;;;;;;;20.08;50.62;99660.59;2076036;28;19956;-44
2021/11/23 00:46:06;;;;;;;;;;;;;;;20.07;50.41;99665.22;2080364;28;19911;-44
2021/11/23 00:47:06;;;;;;;;;;;;;;;20.08;50.61;99666.91;2082848;28;19909;-44
2021/11/23 00:48:07;;;;;;;;;;;;;;;20.08;50.37;99655.97;2081229;28;19912;-43
2021/11/23 00:49:08;;;;;;;;;;;;;;;20.11;50.38;99661.13;2079056;28;20954;-42
2021/11/23 00:50:10;;;;;;;;;;;;;;;20.11;50.39;99666.59;2081174;28;19915;-44
2021/11/23 00:51:10;;;;;;;;;;;;;;;20.12;50.50;99668.31;2082369;28;19916;-43
2021/11/23 00:52:12;;;;;;;;;;;;;;;20.12;50.57;99668.31;2083053;28;19916;-44
2021/11/23 00:53:12;;;;;;;;;;;;;;;20.13;50.38;99670.00;2083365;28;19966;-47
2021/11/23 00:54:12;;;;;;;;;;;;;;;20.13;50.27;99675.47;2083884;28;20605;-43
2021/11/23 00:55:13;;;;;;;;;;;;;;;20.15;50.36;99671.72;2083592;28;19916;-45
2021/11/23 00:56:13;;;;;;;;;;;;;;;20.13;50.40;99670.00;2077014;28;19917;-42
2021/11/23 00:57:13;;;;;;;;;;;;;;;20.16;50.19;99667.97;2078144;28;19917;-42
2021/11/23 00:58:14;;;;;;;;;;;;;;;20.15;50.20;99667.09;2079954;28;19966;-45
2021/11/23 00:59:14;;;;;;;;;;;;;;;20.16;50.28;99671.53;2083269;28;20127;-43
2021/11/23 01:00:15;;;;;;;;;;;;;;;20.19;50.17;99678.59;2079529;28;19909;-47
2021/11/23 01:01:15;;;;;;;;;;;;;;;20.19;50.15;99668.50;2079689;28;19923;-48
2021/11/23 01:02:15;;;;;;;;;;;;;;;20.18;50.17;99661.28;2077005;28;19928;-44
2021/11/23 01:03:17;;;;;;;;;;;;;;;20.22;50.26;99661.84;2081575;28;19963;-45
2021/11/23 01:04:17;;;;;;;;;;;;;;;20.24;50.16;99668.00;2076148;28;19917;-44
2021/11/23 01:05:18;;;;;;;;;;;;;;;20.24;50.18;99666.09;2077315;28;19917;-44
2021/11/23 01:06:18;;;;;;;;;;;;;;;20.28;50.14;99677.56;2077625;28;20307;-43
2021/11/23 01:07:18;;;;;;;;;;;;;;;20.29;49.98;99668.34;2078575;28;19921;-45
2021/11/23 01:08:19;;;;;;;;;;;;;;;20.31;50.05;99667.16;2078398;28;19920;-44
2021/11/23 01:09:19;;;;;;;;;;;;;;;20.31;49.84;99666.31;2081364;28;19928;-45
2021/11/23 01:10:20;;;;;;;;;;;;;;;20.35;49.91;99667.66;2078204;28;20312;-43
2021/11/23 01:11:20;;;;;;;;;;;;;;;20.36;49.86;99663.91;2080976;28;20342;-44
2021/11/23 01:12:20;;;;;;;;;;;;;;;20.37;49.82;99664.75;2078503;28;19935;-43
2021/11/23 01:13:21;;;;;;;;;;;;;;;20.37;49.70;99665.63;2080327;28;19921;-43
2021/11/23 01:14:22;;;;;;;;;;;;;;;20.38;49.79;99666.47;2083971;28;19916;-45
2021/11/23 01:15:23;;;;;;;;;;;;;;;20.39;49.80;99668.19;2084420;28;19917;-43
2021/11/23 01:16:24;;;;;;;;;;;;;;;20.39;49.69;99663.56;2085366;28;19917;-43
2021/11/23 01:17:24;;;;;;;;;;;;;;;20.40;49.77;99667.16;2087575;28;20331;-43
2021/11/23 01:18:24;;;;;;;;;;;;;;;20.39;49.68;99666.31;2086021;28;19917;-42
2021/11/23 01:19:26;;;;;;;;;;;;;;;20.40;49.53;99669.91;2084944;28;20041;-43
2021/11/23 01:20:26;;;;;;;;;;;;;;;20.40;49.76;99673.47;2082406;28;20157;-44
2021/11/23 01:21:27;;;;;;;;;;;;;;;20.40;49.61;99669.91;2076902;28;20191;-43
2021/11/23 01:22:27;;;;;;;;;;;;;;;20.40;49.54;99680.84;2080160;28;20235;-41
2021/11/23 01:23:28;;;;;;;;;;;;;;;20.38;49.67;99674.69;2080831;28;19916;-42
2021/11/23 01:24:28;;;;;;;;;;;;;;;20.35;49.54;99673.13;2083617;28;19916;-42
2021/11/23 01:25:29;;;;;;;;;;;;;;;20.33;49.69;99669.69;2081836;28;19927;-42
2021/11/23 01:26:29;;;;;;;;;;;;;;;20.30;49.82;99675.53;2087561;28;20348;-42
2021/11/23 01:27:29;;;;;;;;;;;;;;;20.27;50.00;99670.38;2085701;28;19927;-42
2021/11/23 01:28:30;;;;;;;;;;;;;;;20.24;50.00;99673.47;2087097;28;19954;-42
2021/11/23 01:29:30;;;;;;;;;;;;;;;20.23;50.01;99674.47;2080936;28;20422;-43
2021/11/23 01:30:31;;;;;;;;;;;;;;;20.21;50.00;99665.56;2087317;28;19924;-42
2021/11/23 01:31:31;;;;;;;;;;;;;;;20.20;50.19;99675.66;2085116;28;19927;-41
2021/11/23 01:32:31;;;;;;;;;;;;;;;20.19;50.17;99673.13;2085491;28;19939;-43
2021/11/23 01:33:31;;;;;;;;;;;;;;;20.16;50.33;99671.53;2085844;28;19924;-42
2021/11/23 01:34:32;;;;;;;;;;;;;;;20.13;50.15;99667.25;2084784;28;19928;-41
2021/11/23 01:35:33;;;;;;;;;;;;;;;20.12;50.45;99679.25;2087291;28;20145;-42
2021/11/23 01:36:33;;;;;;;;;;;;;;;20.13;50.35;99680.94;2088739;28;19908;-43
2021/11/23 01:37:34;;;;;;;;;;;;;;;20.11;50.34;99677.53;2086212;28;19916;-43
2021/11/23 01:38:34;;;;;;;;;;;;;;;20.09;50.47;99676.84;2089109;28;19916;-42
2021/11/23 01:39:35;;;;;;;;;;;;;;;20.09;50.60;99671.38;2081600;28;20212;-43
2021/11/23 01:40:35;;;;;;;;;;;;;;;20.09;50.46;99685.06;2086226;28;19956;-42
2021/11/23 01:41:35;;;;;;;;;;;;;;;20.07;50.42;99681.63;2084529;28;20207;-42
2021/11/23 01:42:36;;;;;;;;;;;;;;;20.07;50.60;99681.63;2085443;28;19955;-42
2021/11/23 01:43:37;;;;;;;;;;;;;;;20.06;50.46;99688.13;2084989;28;19923;-42
2021/11/23 01:44:37;;;;;;;;;;;;;;;20.05;50.46;99683.66;2080387;28;19924;-42
2021/11/23 01:45:39;;;;;;;;;;;;;;;20.04;50.66;99676.50;2086139;28;20330;-42
2021/11/23 01:46:39;;;;;;;;;;;;;;;20.04;50.63;99681.97;2084194;28;19920;-42
2021/11/23 01:47:39;;;;;;;;;;;;;;;20.03;50.64;99682.97;2087281;28;19909;-42
2021/11/23 01:48:40;;;;;;;;;;;;;;;20.03;50.56;99679.38;2082596;28;19916;-41
2021/11/23 01:49:40;;;;;;;;;;;;;;;20.02;50.47;99678.53;2086116;28;19916;-42
2021/11/23 01:50:41;;;;;;;;;;;;;;;20.01;50.70;99678.69;2083996;28;20295;-42
2021/11/23 01:51:42;;;;;;;;;;;;;;;20.00;50.59;99685.19;2085507;28;20452;-42
2021/11/23 01:52:44;;;;;;;;;;;;;;;20.00;50.71;99686.03;2083405;28;19980;-42
2021/11/23 01:53:45;;;;;;;;;;;;;;;19.98;50.63;99682.63;2087072;28;20454;-41
2021/11/23 01:54:45;;;;;;;;;;;;;;;19.98;50.77;99690.81;2083890;28;19998;-42
2021/11/23 01:55:46;;;;;;;;;;;;;;;19.97;50.63;99680.06;2084971;28;19921;-42
2021/11/23 01:56:46;;;;;;;;;;;;;;;19.97;50.81;99680.91;2087694;28;19954;-42
2021/11/23 01:57:46;;;;;;;;;;;;;;;19.97;50.59;99680.91;2087712;28;19923;-41
2021/11/23 01:58:47;;;;;;;;;;;;;;;19.98;50.79;99681.75;2086680;28;19912;-41
2021/11/23 01:59:47;;;;;;;;;;;;;;;19.97;50.78;99680.91;2084140;28;19918;-41
2021/11/23 02:00:47;;;;;;;;;;;;;;;19.96;50.67;99684.66;2085610;28;20692;-42
2021/11/23 02:01:48;;;;;;;;;;;;;;;19.95;50.80;99682.94;2087559;28;20289;-42
2021/11/23 02:02:48;;;;;;;;;;;;;;;19.95;50.80;99682.94;2085876;28;19916;-42
2021/11/23 02:03:49;;;;;;;;;;;;;;;19.95;50.69;99677.47;2085603;28;20349;-42
2021/11/23 02:04:49;;;;;;;;;;;;;;;19.95;50.72;99687.56;2086398;28;19926;-42
2021/11/23 02:05:50;;;;;;;;;;;;;;;19.93;50.71;99682.25;2087574;28;19920;-42
2021/11/23 02:06:51;;;;;;;;;;;;;;;19.92;50.77;99684.16;2084337;28;19912;-42
2021/11/23 02:07:51;;;;;;;;;;;;;;;19.93;50.70;99690.47;2083425;28;20032;-42
2021/11/23 02:08:52;;;;;;;;;;;;;;;19.92;50.79;99684.16;2084898;28;19966;-42
2021/11/23 02:09:52;;;;;;;;;;;;;;;19.92;50.80;99683.28;2086613;28;19917;-42
2021/11/23 02:10:53;;;;;;;;;;;;;;;19.92;50.79;99683.28;2085053;28;19955;-42
2021/11/23 02:11:54;;;;;;;;;;;;;;;19.92;50.78;99680.56;2085162;28;19943;-42
2021/11/23 02:12:54;;;;;;;;;;;;;;;19.91;50.89;99689.75;2084722;28;20032;-42
2021/11/23 02:13:55;;;;;;;;;;;;;;;19.91;50.79;99676.09;2085846;28;20765;-42
2021/11/23 02:14:55;;;;;;;;;;;;;;;19.92;50.89;99680.56;2079948;28;20315;-42
2021/11/23 02:15:56;;;;;;;;;;;;;;;19.91;50.82;99673.34;2081379;28;20625;-42
2021/11/23 02:16:57;;;;;;;;;;;;;;;19.90;50.75;99674.38;2078349;28;19917;-42
2021/11/23 02:17:57;;;;;;;;;;;;;;;19.89;50.91;99673.53;2084633;28;19920;-42
2021/11/23 02:18:58;;;;;;;;;;;;;;;19.89;50.74;99673.53;2082570;28;20336;-42
2021/11/23 02:19:58;;;;;;;;;;;;;;;19.89;50.80;99672.66;2085776;28;19928;-41
2021/11/23 02:20:59;;;;;;;;;;;;;;;19.89;50.80;99676.28;2084432;28;20379;-41
2021/11/23 02:21:59;;;;;;;;;;;;;;;19.89;50.77;99672.66;2083048;28;19939;-41
2021/11/23 02:23:00;;;;;;;;;;;;;;;19.89;50.79;99667.19;2078847;28;19916;-42
2021/11/23 02:24:00;;;;;;;;;;;;;;;19.88;50.77;99680.00;2082976;28;19955;-42
2021/11/23 02:25:01;;;;;;;;;;;;;;;19.89;50.85;99672.66;2083301;28;20338;-42
2021/11/23 02:26:02;;;;;;;;;;;;;;;19.88;50.75;99687.38;2079259;28;19917;-42
2021/11/23 02:27:02;;;;;;;;;;;;;;;19.88;50.77;99676.44;2086340;28;20235;-42
2021/11/23 02:28:07;;;;;;;;;;;;;;;19.88;50.81;99673.69;2084861;28;20486;-42
2021/11/23 02:29:07;;;;;;;;;;;;;;;19.87;50.78;99675.56;2080672;28;20766;-42
2021/11/23 02:30:09;;;;;;;;;;;;;;;19.87;50.81;99675.56;2083750;28;20299;-40
2021/11/23 02:31:10;;;;;;;;;;;;;;;19.86;50.79;99667.53;2080800;28;19916;-41
2021/11/23 02:32:10;;;;;;;;;;;;;;;19.87;50.83;99674.72;2084736;28;20358;-42
2021/11/23 02:33:12;;;;;;;;;;;;;;;19.86;50.84;99678.47;2083500;28;19916;-41
2021/11/23 02:34:13;;;;;;;;;;;;;;;19.86;50.91;99673.00;2080306;28;19921;-42
2021/11/23 02:35:13;;;;;;;;;;;;;;;19.86;50.79;99664.78;2085720;28;19916;-41
2021/11/23 02:36:13;;;;;;;;;;;;;;;19.86;50.62;99664.78;2083754;28;19962;-41
2021/11/23 02:37:14;;;;;;;;;;;;;;;19.85;50.94;99666.69;2083769;28;19920;-42
2021/11/23 02:38:17;;;;;;;;;;;;;;;19.85;50.78;99666.69;2084920;28;20342;-42
2021/11/23 02:39:17;;;;;;;;;;;;;;;19.87;50.84;99672.00;2084678;28;19921;-42
2021/11/23 02:40:18;;;;;;;;;;;;;;;19.87;50.68;99670.09;2085335;28;19916;-41
2021/11/23 02:41:19;;;;;;;;;;;;;;;19.87;50.71;99674.72;2082417;28;20371;-42
2021/11/23 02:42:19;;;;;;;;;;;;;;;19.87;50.74;99667.38;2081787;28;19916;-42
2021/11/23 02:43:20;;;;;;;;;;;;;;;19.88;50.66;99665.50;2086791;28;20747;-42
2021/11/23 02:44:21;;;;;;;;;;;;;;;19.88;50.65;99660.88;2081781;28;20404;-42
2021/11/23 02:45:24;;;;;;;;;;;;;;;19.89;50.61;99658.97;2084491;28;19916;-42
2021/11/23 02:46:24;;;;;;;;;;;;;;;19.89;50.73;99658.97;2084625;28;20412;-42
2021/11/23 02:47:24;;;;;;;;;;;;;;;19.89;50.78;99659.88;2083760;28;19927;-41
2021/11/23 02:48:25;;;;;;;;;;;;;;;19.90;50.72;99658.81;2086168;28;20762;-42
2021/11/23 02:49:25;;;;;;;;;;;;;;;19.91;50.75;99659.69;2081702;28;19964;-42
2021/11/23 02:50:27;;;;;;;;;;;;;;;19.92;50.72;99655.94;2083901;28;19974;-42
2021/11/23 02:51:28;;;;;;;;;;;;;;;19.91;50.54;99652.31;2086750;28;19927;-42
2021/11/23 02:52:28;;;;;;;;;;;;;;;19.92;50.49;99651.31;2086056;28;19990;-42
2021/11/23 02:53:29;;;;;;;;;;;;;;;19.92;50.63;99658.69;2087094;28;19917;-42
2021/11/23 02:54:29;;;;;;;;;;;;;;;19.92;50.51;99650.47;2083017;28;20013;-42
2021/11/23 02:55:32;;;;;;;;;;;;;;;19.93;50.41;99657.63;2084017;28;20030;-42
2021/11/23 02:56:33;;;;;;;;;;;;;;;19.94;50.49;99653.03;2083683;28;19912;-41
2021/11/23 02:57:34;;;;;;;;;;;;;;;19.94;50.63;99656.59;2085234;28;19921;-42
2021/11/23 02:58:35;;;;;;;;;;;;;;;19.94;50.57;99653.03;2083793;28;19936;-42
2021/11/23 02:59:35;;;;;;;;;;;;;;;19.95;50.61;99658.34;2084693;28;19916;-42
2021/11/23 03:00:36;;;;;;;;;;;;;;;19.94;50.50;99659.34;2087907;28;19916;-42
2021/11/23 03:01:36;;;;;;;;;;;;;;;19.94;50.48;99653.88;2085505;28;19927;-42
2021/11/23 03:02:37;;;;;;;;;;;;;;;19.94;50.52;99653.03;2086303;28;19949;-42
2021/11/23 03:03:37;;;;;;;;;;;;;;;19.95;50.38;99650.13;2079285;28;20132;-42
2021/11/23 03:04:38;;;;;;;;;;;;;;;19.94;50.53;99653.88;2082858;28;20164;-42
2021/11/23 03:05:40;;;;;;;;;;;;;;;19.93;50.49;99654.91;2082993;28;20636;-42
2021/11/23 03:06:43;;;;;;;;;;;;;;;19.93;50.60;99654.91;2078718;28;20585;-42
2021/11/23 03:07:43;;;;;;;;;;;;;;;19.94;50.38;99656.59;2082045;28;19942;-42
2021/11/23 03:08:44;;;;;;;;;;;;;;;19.93;50.57;99654.91;2085758;28;20102;-42
2021/11/23 03:09:45;;;;;;;;;;;;;;;19.93;50.45;99649.44;2085722;28;19916;-42
2021/11/23 03:10:45;;;;;;;;;;;;;;;19.94;50.56;99648.41;2087726;28;19923;-42
2021/11/23 03:11:45;;;;;;;;;;;;;;;19.94;50.56;99650.28;2085408;28;19908;-42
2021/11/23 03:12:46;;;;;;;;;;;;;;;19.93;50.53;99652.16;2084655;28;19916;-42
2021/11/23 03:13:47;;;;;;;;;;;;;;;19.93;50.41;99652.16;2085393;28;20452;-42
2021/11/23 03:14:48;;;;;;;;;;;;;;;19.93;50.41;99652.16;2086519;28;19924;-42
2021/11/23 03:15:48;;;;;;;;;;;;;;;19.94;50.27;99651.13;2085253;28;20287;-42
2021/11/23 03:16:48;;;;;;;;;;;;;;;19.93;50.29;99646.69;2082878;28;19917;-42
2021/11/23 03:17:48;;;;;;;;;;;;;;;19.93;50.33;99649.44;2085243;28;20376;-42
2021/11/23 03:18:49;;;;;;;;;;;;;;;19.92;50.42;99643.13;2081418;28;20007;-42
2021/11/23 03:19:50;;;;;;;;;;;;;;;19.93;50.40;99649.44;2086348;28;20376;-42
2021/11/23 03:20:51;;;;;;;;;;;;;;;19.92;50.53;99645.84;2087012;28;19916;-42
2021/11/23 03:21:51;;;;;;;;;;;;;;;19.92;50.40;99645.00;2089941;28;19908;-42
2021/11/23 03:22:52;;;;;;;;;;;;;;;19.93;50.37;99641.22;2082664;28;19970;-42
2021/11/23 03:23:52;;;;;;;;;;;;;;;19.93;50.54;99646.69;2083844;28;20135;-41
2021/11/23 03:24:53;;;;;;;;;;;;;;;19.92;50.51;99642.25;2085265;28;19916;-42
2021/11/23 03:25:53;;;;;;;;;;;;;;;19.93;50.50;99646.69;2082874;28;19951;-43
2021/11/23 03:26:54;;;;;;;;;;;;;;;19.94;50.37;99648.41;2083936;28;20070;-42
2021/11/23 03:27:54;;;;;;;;;;;;;;;19.92;50.49;99645.84;2085141;28;20261;-42
2021/11/23 03:28:55;;;;;;;;;;;;;;;19.93;50.37;99646.69;2081753;28;19944;-42
2021/11/23 03:29:55;;;;;;;;;;;;;;;19.94;50.43;99647.53;2085438;28;19960;-42
2021/11/23 03:30:55;;;;;;;;;;;;;;;19.94;50.43;99642.06;2083396;28;20378;-42
2021/11/23 03:31:56;;;;;;;;;;;;;;;19.92;50.36;99643.13;2083746;28;19949;-42
2021/11/23 03:32:57;;;;;;;;;;;;;;;19.95;50.48;99646.53;2086205;28;20609;-42
2021/11/23 03:33:57;;;;;;;;;;;;;;;19.94;50.39;99642.94;2084265;28;19920;-42
2021/11/23 03:34:57;;;;;;;;;;;;;;;19.94;50.36;99648.41;2082355;28;19917;-42
2021/11/23 03:35:58;;;;;;;;;;;;;;;19.94;50.21;99640.19;2083364;28;19916;-43
2021/11/23 03:36:58;;;;;;;;;;;;;;;19.95;50.36;99647.38;2083389;28;19916;-42
2021/11/23 03:37:59;;;;;;;;;;;;;;;19.93;50.33;99641.22;2083782;28;19921;-41
2021/11/23 03:38:59;;;;;;;;;;;;;;;19.95;50.24;99644.66;2084123;28;20403;-42
2021/11/23 03:39:59;;;;;;;;;;;;;;;19.94;50.32;99648.41;2083627;28;20227;-42
2021/11/23 03:41:00;;;;;;;;;;;;;;;19.95;50.43;99650.13;2083719;28;19912;-41
2021/11/23 03:42:00;;;;;;;;;;;;;;;19.96;50.26;99646.34;2083818;28;19916;-40
2021/11/23 03:43:00;;;;;;;;;;;;;;;19.94;50.32;99648.41;2085511;28;20095;-42
2021/11/23 03:44:02;;;;;;;;;;;;;;;19.94;50.24;99642.94;2083037;28;19963;-42
2021/11/23 03:45:03;;;;;;;;;;;;;;;19.96;50.20;99651.81;2085701;28;19908;-43
2021/11/23 03:46:03;;;;;;;;;;;;;;;19.95;50.27;99650.13;2081589;28;20350;-42
2021/11/23 03:47:05;;;;;;;;;;;;;;;19.95;50.24;99655.59;2085483;28;19920;-42
2021/11/23 03:48:05;;;;;;;;;;;;;;;19.94;50.30;99648.41;2084856;28;20289;-42
2021/11/23 03:49:06;;;;;;;;;;;;;;;19.95;50.36;99641.91;2085719;28;19916;-42
2021/11/23 03:50:08;;;;;;;;;;;;;;;19.96;50.23;99650.97;2084910;28;19923;-42
2021/11/23 03:51:08;;;;;;;;;;;;;;;19.95;50.44;99652.88;2082382;28;19915;-41
2021/11/23 03:52:08;;;;;;;;;;;;;;;19.96;50.35;99650.97;2084435;28;20362;-42
2021/11/23 03:53:09;;;;;;;;;;;;;;;19.96;50.39;99645.50;2082001;28;19927;-42
2021/11/23 03:54:09;;;;;;;;;;;;;;;19.96;50.21;99640.03;2081666;28;20287;-42
2021/11/23 03:55:13;;;;;;;;;;;;;;;19.95;50.27;99639.19;2085267;28;20354;-43
2021/11/23 03:56:14;;;;;;;;;;;;;;;19.94;50.23;99637.44;2080626;28;19909;-42
2021/11/23 03:57:14;;;;;;;;;;;;;;;19.94;50.32;99634.72;2085179;28;20286;-42
2021/11/23 03:58:14;;;;;;;;;;;;;;;19.95;50.36;99644.66;2083884;28;19923;-42
2021/11/23 03:59:15;;;;;;;;;;;;;;;19.95;50.29;99641.91;2074716;28;20019;-42
2021/11/23 04:00:17;;;;;;;;;;;;;;;19.94;50.31;99634.72;2090316;28;19915;-43
2021/11/23 04:01:17;;;;;;;;;;;;;;;19.93;50.38;99638.50;2085599;28;19966;-42
2021/11/23 04:02:19;;;;;;;;;;;;;;;19.91;50.28;99638.66;2083916;28;19989;-42
2021/11/23 04:03:19;;;;;;;;;;;;;;;19.95;50.28;99644.66;2084289;28;19917;-42
2021/11/23 04:04:20;;;;;;;;;;;;;;;19.95;50.22;99639.19;2085288;28;19920;-42
2021/11/23 04:05:20;;;;;;;;;;;;;;;19.95;50.21;99643.81;2085407;28;19912;-42
2021/11/23 04:06:20;;;;;;;;;;;;;;;19.94;50.20;99631.97;2084930;28;19917;-42
2021/11/23 04:07:21;;;;;;;;;;;;;;;19.95;50.23;99635.59;2083735;28;19909;-42
2021/11/23 04:08:22;;;;;;;;;;;;;;;19.95;50.20;99639.19;2085282;28;19923;-42
2021/11/23 04:09:22;;;;;;;;;;;;;;;19.95;50.26;99632.88;2085491;28;20239;-41
2021/11/23 04:10:23;;;;;;;;;;;;;;;19.94;50.16;99642.94;2084972;28;20379;-42
2021/11/23 04:11:23;;;;;;;;;;;;;;;19.93;50.26;99635.75;2085531;28;20411;-42
2021/11/23 04:12:23;;;;;;;;;;;;;;;19.94;50.26;99637.44;2085031;28;19969;-41
2021/11/23 04:13:24;;;;;;;;;;;;;;;19.94;50.30;99636.59;2081379;28;20408;-42
2021/11/23 04:14:24;;;;;;;;;;;;;;;19.93;50.26;99638.50;2085412;28;19923;-42
2021/11/23 04:15:25;;;;;;;;;;;;;;;19.94;50.40;99639.34;2080804;28;19916;-42
2021/11/23 04:16:25;;;;;;;;;;;;;;;19.94;50.19;99637.44;2082732;28;20567;-41
2021/11/23 04:17:26;;;;;;;;;;;;;;;19.95;50.34;99643.81;2080109;28;19927;-42
2021/11/23 04:18:26;;;;;;;;;;;;;;;19.94;50.17;99636.59;2077728;28;20033;-42
2021/11/23 04:19:28;;;;;;;;;;;;;;;19.93;50.21;99635.75;2084748;28;19920;-42
2021/11/23 04:20:28;;;;;;;;;;;;;;;19.94;50.28;99642.06;2087796;28;20200;-41
2021/11/23 04:21:28;;;;;;;;;;;;;;;19.92;50.30;99629.44;2074494;28;19924;-42
2021/11/23 04:22:29;;;;;;;;;;;;;;;19.93;50.17;99635.75;2082424;28;20801;-42
2021/11/23 04:23:29;;;;;;;;;;;;;;;19.94;50.21;99640.19;2083854;28;19966;-41
2021/11/23 04:24:30;;;;;;;;;;;;;;;19.94;50.28;99636.59;2084951;28;20329;-42
2021/11/23 04:25:30;;;;;;;;;;;;;;;19.92;50.38;99634.91;2083781;28;20138;-42
2021/11/23 04:26:30;;;;;;;;;;;;;;;19.92;50.53;99634.91;2078466;28;20152;-42
2021/11/23 04:27:33;;;;;;;;;;;;;;;19.92;50.36;99631.31;2084260;28;20376;-42
2021/11/23 04:28:33;;;;;;;;;;;;;;;19.92;50.25;99631.31;2080662;28;20211;-42
2021/11/23 04:29:33;;;;;;;;;;;;;;;19.92;50.23;99639.53;2082827;28;19978;-42
2021/11/23 04:30:34;;;;;;;;;;;;;;;19.91;50.23;99635.06;2083011;28;20011;-42
2021/11/23 04:31:34;;;;;;;;;;;;;;;19.91;50.31;99638.66;2082724;28;20004;-41
2021/11/23 04:32:34;;;;;;;;;;;;;;;19.91;50.24;99632.31;2084681;28;20339;-41
2021/11/23 04:33:35;;;;;;;;;;;;;;;19.91;50.34;99626.84;2085472;28;20041;-42
2021/11/23 04:34:35;;;;;;;;;;;;;;;19.91;50.34;99632.31;2084860;28;19936;-42
2021/11/23 04:35:35;;;;;;;;;;;;;;;19.91;50.23;99632.31;2086608;28;19924;-42
2021/11/23 04:36:36;;;;;;;;;;;;;;;19.90;50.38;99625.16;2086195;28;19937;-42
2021/11/23 04:37:36;;;;;;;;;;;;;;;19.89;50.38;99629.78;2084348;28;19970;-42
2021/11/23 04:38:37;;;;;;;;;;;;;;;19.89;50.25;99623.41;2079036;28;19940;-42
2021/11/23 04:39:37;;;;;;;;;;;;;;;19.90;50.31;99627.88;2084520;28;19916;-41
2021/11/23 04:40:38;;;;;;;;;;;;;;;19.88;50.27;99622.56;2084276;28;19924;-42
2021/11/23 04:41:39;;;;;;;;;;;;;;;19.89;50.41;99623.41;2082581;28;19916;-42
2021/11/23 04:42:39;;;;;;;;;;;;;;;19.87;50.40;99620.03;2083887;28;19917;-41
2021/11/23 04:43:40;;;;;;;;;;;;;;;19.88;50.37;99627.19;2081871;28;19917;-42
2021/11/23 04:44:40;;;;;;;;;;;;;;;19.87;50.32;99625.50;2083413;28;19916;-42
2021/11/23 04:45:40;;;;;;;;;;;;;;;19.87;50.45;99623.59;2077951;28;20319;-42
2021/11/23 04:46:41;;;;;;;;;;;;;;;19.86;50.39;99619.13;2084685;28;19935;-42
2021/11/23 04:47:42;;;;;;;;;;;;;;;19.86;50.43;99626.50;2078282;28;20418;-42
2021/11/23 04:48:42;;;;;;;;;;;;;;;19.86;50.38;99621.03;2085937;28;20329;-42
2021/11/23 04:49:43;;;;;;;;;;;;;;;19.86;50.45;99623.75;2083673;28;19916;-42
2021/11/23 04:50:43;;;;;;;;;;;;;;;19.85;50.34;99617.44;2083622;28;19920;-42
2021/11/23 04:51:43;;;;;;;;;;;;;;;19.86;50.46;99623.75;2084703;28;20006;-40
2021/11/23 04:52:44;;;;;;;;;;;;;;;19.85;50.36;99619.34;2083670;28;19917;-42
2021/11/23 04:53:44;;;;;;;;;;;;;;;19.85;50.55;99619.34;2085486;28;20377;-41
2021/11/23 04:54:45;;;;;;;;;;;;;;;19.84;50.38;99621.22;2080697;28;20563;-42
2021/11/23 04:55:46;;;;;;;;;;;;;;;19.83;50.50;99619.47;2080129;28;19917;-42
2021/11/23 04:56:46;;;;;;;;;;;;;;;19.83;50.41;99616.75;2085418;28;20146;-41
2021/11/23 04:57:46;;;;;;;;;;;;;;;19.83;50.38;99613.16;2084425;28;21120;-42
2021/11/23 04:58:47;;;;;;;;;;;;;;;19.83;50.50;99613.16;2082919;28;20138;-42
2021/11/23 04:59:47;;;;;;;;;;;;;;;19.83;50.40;99615.91;2084313;28;19916;-42
2021/11/23 05:00:47;;;;;;;;;;;;;;;19.83;50.40;99618.63;2085428;28;20299;-42
2021/11/23 05:01:48;;;;;;;;;;;;;;;19.81;50.49;99610.59;2084072;28;20148;-41
2021/11/23 05:02:48;;;;;;;;;;;;;;;19.83;50.52;99618.63;2086713;28;19959;-42
2021/11/23 05:03:48;;;;;;;;;;;;;;;19.82;50.33;99623.25;2083709;28;20739;-42
2021/11/23 05:04:48;;;;;;;;;;;;;;;19.81;50.51;99615.19;2085876;28;19923;-41
2021/11/23 05:05:49;;;;;;;;;;;;;;;19.82;50.46;99619.63;2081082;28;20771;-42
2021/11/23 05:06:49;;;;;;;;;;;;;;;19.80;50.48;99625.28;2082105;28;20208;-42
2021/11/23 05:07:49;;;;;;;;;;;;;;;19.80;50.52;99625.28;2085184;28;19917;-42
2021/11/23 05:08:50;;;;;;;;;;;;;;;19.80;50.32;99629.91;2081607;28;19965;-42
2021/11/23 05:09:51;;;;;;;;;;;;;;;19.81;50.53;99623.41;2083865;28;20162;-41
2021/11/23 05:10:51;;;;;;;;;;;;;;;19.81;50.45;99620.69;2083343;28;19908;-42
2021/11/23 05:11:52;;;;;;;;;;;;;;;19.80;50.39;99635.38;2081120;28;19916;-42
2021/11/23 05:12:53;;;;;;;;;;;;;;;19.80;50.51;99629.91;2085128;28;20021;-42
2021/11/23 05:13:53;;;;;;;;;;;;;;;19.80;50.47;99624.44;2082303;28;20258;-42
2021/11/23 05:14:53;;;;;;;;;;;;;;;19.79;50.36;99628.19;2082693;28;20604;-42
2021/11/23 05:15:54;;;;;;;;;;;;;;;19.79;50.38;99622.72;2084704;28;20383;-42